Accueil
METAR-TAF:

METAR-TAF

Aéroports :

Aéroport de Bathurst

Bathurst, Nouveau-Brunswick, Canada

latitude: 47-38N, longitude: 065-45W, altitude: 59 m

Observation

Le bulletin a été fait il y a 48 minutes, à 10:00 UTC
Vent 3 kt de nord/nord-est, variant entre nord et est/nord-est
Température -2°C
Humidité 86%
Pression 1022 hPa
Visibilité: 14.5 km
Nuages fragmentés à une hauteur de 5500 ft

METAR: CZBF 041000Z AUTO 03003KT 350V070 9SM BKN055 M02/M04 A3018 RMK SLP224

Heure: 07:48 (10:48 UTC)

Prévision

Le bulletin a été fait il y a 2 heures et 10 minutes, à 08:38 UTC
Prévision valable du 04 à 09 UTC au 04 à 21 UTC
Vent 5 kt de nord-est
Visibilité: 10 km
Ciel couvert à une hauteur de 3000 ft
Temporairement
du 04 à 09 UTC au 04 à 16 UTC
Visibilité: 6.4 km
Ciel couvert à une hauteur de 2000 ft
faibles averses de neige

TAF: CZBF 040838Z 0409/0421 04005KT P6SM OVC030 TEMPO 0409/0416 4SM -SHSN OVC020 RMK FCST BASED ON AUTO OBS. NXT FCST BY 041400Z

Observations et prévisions météorologiques de plus de 4000 aéroports (messages METAR et TAF).

Les stations disponibles sont représentées par des disques jaunes et rouges sur la carte.

Passer la souris dessus pour voir le nom de la station.

Cliquer dessus pour voir les observations et prévisions météorologiques.

Pour changer de carte: cliquez sur les boutons verts avec une croix noire pour zoomer, sur le bouton vert avec un tiret pour effectuer un zoom arrière, ou sur les flèches vertes pour les cartes adjacentes.


METAR-TAF: